Time;durP1;ratioP1;P1;durP2;ratioP2;P2;SDS_P1;SDS_P2;PMS_P1;PMS_P2;Temp;Humidity;BMP_temperature;BMP_pressure;BME280_temperature;BME280_humidity;BME280_pressure;Samples;Min_cycle;Max_cycle;Signal;HPM_P1;HPM_P2
2022/08/17 00:01:55;;;;;;;10.93;5.77;;;;;;;;;;4998572;28;20471;-79
2022/08/17 00:04:21;;;;;;;8.50;6.23;;;;;;;;;;5007367;28;20531;-78
2022/08/17 00:07:09;;;;;;;6.10;5.43;;;;;;;;;;4986050;28;20968;-77
2022/08/17 00:09:35;;;;;;;6.23;5.67;;;;;;;;;;5000287;28;20960;-78
2022/08/17 00:12:02;;;;;;;7.57;5.97;;;;;;;;;;4978115;28;21140;-78
2022/08/17 00:14:28;;;;;;;6.30;5.70;;;;;;;;;;5001954;28;20459;-79
2022/08/17 00:16:54;;;;;;;6.13;5.50;;;;;;;;;;4977443;28;20439;-78
2022/08/17 00:19:21;;;;;;;7.23;6.17;;;;;;;;;;5001450;28;20807;-80
2022/08/17 00:21:58;;;;;;;;;;;;;;;;;;;;;
2022/08/17 00:24:26;;;;;;;6.37;5.77;;;;;;;;;;4985619;28;20549;-81
2022/08/17 00:26:52;;;;;;;6.40;5.57;;;;;;;;;;4985172;28;21928;-79
2022/08/17 00:29:18;;;;;;;5.67;5.17;;;;;;;;;;4992157;28;20436;-80
2022/08/17 00:31:54;;;;;;;5.73;5.23;;;;;;;;;;4993123;28;20914;-78
2022/08/17 00:34:21;;;;;;;7.07;5.43;;;;;;;;;;4984475;28;20467;-77
2022/08/17 00:37:16;;;;;;;6.30;5.67;;;;;;;;;;4983554;28;21162;-80
2022/08/17 00:39:42;;;;;;;6.20;5.60;;;;;;;;;;4975671;28;20556;-80
2022/08/17 00:42:12;;;;;;;5.43;4.93;;;;;;;;;;4978537;28;20498;-78
2022/08/17 00:44:38;;;;;;;5.90;5.40;;;;;;;;;;4999505;28;20428;-82
2022/08/17 00:47:07;;;;;;;6.63;6.03;;;;;;;;;;4982218;28;20509;-79
2022/08/17 00:49:33;;;;;;;7.30;6.10;;;;;;;;;;4985118;28;20468;-78
2022/08/17 00:52:05;;;;;;;6.73;5.43;;;;;;;;;;4967401;28;20460;-79
2022/08/17 00:54:33;;;;;;;6.00;5.40;;;;;;;;;;4995024;28;20429;-78
2022/08/17 00:57:00;;;;;;;5.80;5.30;;;;;;;;;;4954559;28;20475;-79
2022/08/17 00:59:29;;;;;;;6.00;5.50;;;;;;;;;;4981300;28;20436;-78
2022/08/17 01:01:55;;;;;;;5.37;4.87;;;;;;;;;;4963697;28;20511;-78
2022/08/17 01:04:21;;;;;;;6.60;5.63;;;;;;;;;;4980847;28;20448;-79
2022/08/17 01:06:48;;;;;;;6.00;5.40;;;;;;;;;;4994471;28;20925;-78
2022/08/17 01:09:14;;;;;;;5.57;5.07;;;;;;;;;;4987362;28;20439;-79
2022/08/17 01:12:14;;;;;;;5.13;4.60;;;;;;;;;;4988422;28;20932;-79
2022/08/17 01:14:43;;;;;;;5.57;5.00;;;;;;;;;;4997597;28;20475;-79
2022/08/17 01:17:09;;;;;;;5.60;5.10;;;;;;;;;;4997742;28;20432;-78
2022/08/17 01:19:37;;;;;;;5.17;4.70;;;;;;;;;;5002135;28;20468;-79
2022/08/17 01:22:13;;;;;;;5.53;5.03;;;;;;;;;;4991964;28;20840;-78
2022/08/17 01:24:43;;;;;;;6.30;5.27;;;;;;;;;;5005018;28;20446;-78
2022/08/17 01:27:10;;;;;;;8.53;5.43;;;;;;;;;;4979547;28;20436;-78
2022/08/17 01:29:36;;;;;;;6.60;5.17;;;;;;;;;;5002420;28;20442;-78
2022/08/17 01:32:03;;;;;;;5.03;4.30;;;;;;;;;;4956339;28;20909;-80
2022/08/17 01:34:29;;;;;;;4.90;4.50;;;;;;;;;;4984716;28;20479;-79
2022/08/17 01:36:56;;;;;;;6.23;4.87;;;;;;;;;;4965370;28;20436;-79
2022/08/17 01:39:28;;;;;;;7.23;5.60;;;;;;;;;;4983124;28;20455;-79
2022/08/17 01:41:56;;;;;;;5.90;5.30;;;;;;;;;;4998474;28;20821;-80
2022/08/17 01:44:21;;;;;;;6.70;5.70;;;;;;;;;;5002699;28;20439;-78
2022/08/17 01:47:09;;;;;;;5.77;5.07;;;;;;;;;;4993064;28;20436;-79
2022/08/17 01:49:44;;;;;;;5.83;5.33;;;;;;;;;;4963960;28;20454;-78
2022/08/17 01:52:28;;;;;;;7.10;6.40;;;;;;;;;;5004587;28;20431;-78
2022/08/17 01:54:54;;;;;;;5.60;5.00;;;;;;;;;;4974139;28;20447;-79
2022/08/17 01:57:32;;;;;;;6.73;5.63;;;;;;;;;;4999528;28;20785;-81
2022/08/17 01:59:59;;;;;;;6.20;5.70;;;;;;;;;;4996515;28;20448;-78
2022/08/17 02:02:25;;;;;;;5.97;5.37;;;;;;;;;;4979143;28;20472;-78
2022/08/17 02:04:51;;;;;;;7.90;6.30;;;;;;;;;;4990590;28;20455;-78
2022/08/17 02:07:18;;;;;;;6.93;6.00;;;;;;;;;;5010451;28;20448;-78
2022/08/17 02:09:44;;;;;;;6.87;5.50;;;;;;;;;;4982345;28;20509;-78
2022/08/17 02:12:15;;;;;;;9.37;6.70;;;;;;;;;;5007310;28;20444;-78
2022/08/17 02:14:42;;;;;;;5.70;5.10;;;;;;;;;;4958381;28;20503;-78
2022/08/17 02:20:25;;;;;;;6.20;5.60;;;;;;;;;;4915264;28;20455;-78
2022/08/17 02:22:51;;;;;;;6.53;5.93;;;;;;;;;;4985940;28;20730;-79
2022/08/17 02:25:18;;;;;;;6.57;5.67;;;;;;;;;;5007880;28;20184;-78
2022/08/17 02:27:44;;;;;;;6.50;5.90;;;;;;;;;;4978471;28;20429;-79
2022/08/17 02:30:11;;;;;;;5.77;5.27;;;;;;;;;;4981064;28;20796;-79
2022/08/17 02:32:37;;;;;;;7.77;5.60;;;;;;;;;;4997282;28;20425;-77
2022/08/17 02:35:03;;;;;;;6.00;5.50;;;;;;;;;;5005667;28;20463;-81
2022/08/17 02:37:29;;;;;;;6.13;5.53;;;;;;;;;;4995759;28;21159;-78
2022/08/17 02:39:58;;;;;;;6.13;5.53;;;;;;;;;;4985385;28;20459;-78
2022/08/17 02:42:26;;;;;;;6.80;6.10;;;;;;;;;;4982781;28;20483;-79
2022/08/17 02:44:52;;;;;;;6.83;6.23;;;;;;;;;;4945675;28;20547;-79
2022/08/17 02:47:18;;;;;;;6.43;5.83;;;;;;;;;;4989164;28;20435;-79
2022/08/17 02:49:44;;;;;;;6.00;5.40;;;;;;;;;;4991743;28;20440;-80
2022/08/17 02:55:39;;;;;;;6.63;6.13;;;;;;;;;;4895818;29;20569;-79
2022/08/17 02:58:05;;;;;;;5.93;5.40;;;;;;;;;;4986464;28;21140;-79
2022/08/17 03:00:32;;;;;;;6.03;4.90;;;;;;;;;;4976920;28;20444;-79
2022/08/17 03:02:58;;;;;;;7.73;5.60;;;;;;;;;;4997185;28;20546;-79
2022/08/17 03:05:28;;;;;;;6.80;6.20;;;;;;;;;;4967380;28;20490;-78
2022/08/17 03:07:58;;;;;;;5.77;5.10;;;;;;;;;;4983588;28;20432;-78
2022/08/17 03:10:24;;;;;;;6.53;5.83;;;;;;;;;;4954490;28;20460;-79
2022/08/17 03:12:53;;;;;;;6.53;5.57;;;;;;;;;;4991527;28;20456;-80
2022/08/17 03:15:21;;;;;;;6.60;6.00;;;;;;;;;;4966982;28;20502;-78
2022/08/17 03:17:51;;;;;;;9.93;5.80;;;;;;;;;;5003719;28;20471;-80
2022/08/17 03:20:17;;;;;;;8.87;7.20;;;;;;;;;;4978822;28;20439;-78
2022/08/17 03:22:47;;;;;;;8.10;6.63;;;;;;;;;;4996632;28;20482;-77
2022/08/17 03:25:15;;;;;;;6.10;5.47;;;;;;;;;;4972079;28;20426;-79
2022/08/17 03:27:52;;;;;;;5.77;5.13;;;;;;;;;;4976585;28;20790;-79
2022/08/17 03:30:21;;;;;;;7.73;6.43;;;;;;;;;;4981354;28;20458;-79
2022/08/17 03:32:53;;;;;;;6.07;5.40;;;;;;;;;;4999719;28;20428;-79
2022/08/17 03:35:20;;;;;;;6.53;5.93;;;;;;;;;;4964768;28;20578;-78
2022/08/17 03:37:46;;;;;;;7.63;6.03;;;;;;;;;;5000709;28;20436;-78
2022/08/17 03:40:16;;;;;;;7.30;6.60;;;;;;;;;;5003151;28;20436;-77
2022/08/17 03:42:42;;;;;;;7.13;6.40;;;;;;;;;;5000793;28;20472;-78
2022/08/17 03:45:13;;;;;;;7.10;6.50;;;;;;;;;;4959376;28;20442;-80
2022/08/17 03:56:46;;;;;;;7.83;7.00;;;;;;;;;;4962891;28;20431;-79
2022/08/17 03:59:24;;;;;;;7.63;6.90;;;;;;;;;;4988680;28;20431;-79
2022/08/17 04:01:51;;;;;;;7.10;6.37;;;;;;;;;;4979248;28;20471;-79
2022/08/17 04:04:17;;;;;;;7.23;6.33;;;;;;;;;;4976759;28;20481;-78
2022/08/17 04:06:44;;;;;;;7.43;6.30;;;;;;;;;;4996992;28;20446;-78
2022/08/17 04:09:10;;;;;;;6.80;6.30;;;;;;;;;;4986887;28;20444;-77
2022/08/17 04:11:36;;;;;;;9.10;6.40;;;;;;;;;;4992075;28;20442;-78
2022/08/17 04:14:02;;;;;;;8.03;7.30;;;;;;;;;;4980565;28;20513;-77
2022/08/17 04:16:28;;;;;;;6.27;5.57;;;;;;;;;;5002504;28;20449;-77
2022/08/17 04:18:57;;;;;;;7.83;6.23;;;;;;;;;;4978665;28;20443;-78
2022/08/17 04:21:23;;;;;;;7.03;6.00;;;;;;;;;;5007652;28;20521;-78
2022/08/17 04:23:49;;;;;;;7.13;6.53;;;;;;;;;;4982178;28;20923;-78
2022/08/17 04:26:15;;;;;;;8.00;6.10;;;;;;;;;;4997372;28;20783;-77
2022/08/17 04:28:47;;;;;;;8.30;6.50;;;;;;;;;;4974895;28;20471;-78
2022/08/17 04:31:13;;;;;;;6.83;6.10;;;;;;;;;;4991558;28;20444;-78
2022/08/17 04:33:42;;;;;;;6.90;6.30;;;;;;;;;;4974156;28;20435;-78
2022/08/17 04:36:08;;;;;;;6.70;6.10;;;;;;;;;;5000698;28;20517;-78
2022/08/17 04:38:35;;;;;;;7.03;6.43;;;;;;;;;;4990013;28;20424;-77
2022/08/17 04:43:47;;;;;;;7.30;6.10;;;;;;;;;;4971741;28;20447;-77
2022/08/17 04:46:33;;;;;;;8.27;6.30;;;;;;;;;;5009300;28;20471;-77
2022/08/17 04:49:00;;;;;;;10.30;6.47;;;;;;;;;;4981355;28;21534;-77
2022/08/17 04:51:37;;;;;;;8.17;7.40;;;;;;;;;;5005588;28;20435;-77
2022/08/17 04:54:06;;;;;;;6.73;6.23;;;;;;;;;;4980707;28;20438;-79
2022/08/17 04:56:32;;;;;;;6.67;5.80;;;;;;;;;;5003580;28;20436;-81
2022/08/17 04:59:28;;;;;;;7.97;6.47;;;;;;;;;;4968699;28;20846;-79
2022/08/17 05:01:54;;;;;;;7.70;6.40;;;;;;;;;;4990464;28;20579;-78
2022/08/17 05:04:20;;;;;;;6.80;6.10;;;;;;;;;;4978646;28;20432;-78
2022/08/17 05:07:09;;;;;;;8.97;6.57;;;;;;;;;;4990041;28;20437;-76
2022/08/17 05:09:38;;;;;;;7.83;7.03;;;;;;;;;;4971068;28;20475;-76
2022/08/17 05:12:08;;;;;;;7.30;5.83;;;;;;;;;;5004161;28;20452;-78
2022/08/17 05:14:34;;;;;;;6.40;5.33;;;;;;;;;;4986967;28;20961;-77
2022/08/17 05:17:01;;;;;;;7.60;6.53;;;;;;;;;;4984369;28;20479;-76
2022/08/17 05:19:27;;;;;;;6.87;6.20;;;;;;;;;;5000189;28;20436;-75
2022/08/17 05:21:53;;;;;;;7.53;5.93;;;;;;;;;;4994255;28;20701;-76
2022/08/17 05:24:19;;;;;;;7.67;6.93;;;;;;;;;;4969249;28;20451;-78
2022/08/17 05:26:45;;;;;;;6.80;6.10;;;;;;;;;;4977619;28;20436;-78
2022/08/17 05:29:33;;;;;;;7.10;6.40;;;;;;;;;;4969368;28;20972;-78
2022/08/17 05:32:26;;;;;;;;;;;;;;;;;;;;;
2022/08/17 05:34:58;;;;;;;8.03;6.93;;;;;;;;;;4970745;28;20444;-77
2022/08/17 05:37:24;;;;;;;7.10;6.40;;;;;;;;;;5011767;28;20851;-77
2022/08/17 05:39:56;;;;;;;7.30;5.60;;;;;;;;;;4965020;28;20440;-81
2022/08/17 05:42:43;;;;;;;5.90;5.40;;;;;;;;;;4992422;28;20471;-77
2022/08/17 05:45:28;;;;;;;6.33;5.80;;;;;;;;;;4978377;28;20505;-80
2022/08/17 05:48:02;;;;;;;6.27;5.70;;;;;;;;;;5004548;28;20443;-78
2022/08/17 05:50:30;;;;;;;6.53;5.60;;;;;;;;;;4991612;28;20439;-82
2022/08/17 05:53:23;;;;;;;6.93;6.30;;;;;;;;;;4996699;28;20449;-82
2022/08/17 05:56:24;;;;;;;6.73;5.90;;;;;;;;;;4992317;28;20432;-79
2022/08/17 05:59:13;;;;;;;8.67;7.60;;;;;;;;;;4896353;29;20864;-78
2022/08/17 06:01:51;;;;;;;7.07;6.43;;;;;;;;;;4992412;28;20507;-78
2022/08/17 06:04:41;;;;;;;10.70;7.60;;;;;;;;;;4964169;28;20452;-79
2022/08/17 06:07:12;;;;;;;7.93;7.13;;;;;;;;;;4947999;28;20428;-79
2022/08/17 06:09:39;;;;;;;10.90;6.50;;;;;;;;;;4999899;28;20539;-78
2022/08/17 06:12:08;;;;;;;8.93;6.30;;;;;;;;;;4960610;28;20439;-78
2022/08/17 06:14:53;;;;;;;7.23;6.30;;;;;;;;;;5009921;28;20432;-79
2022/08/17 06:17:20;;;;;;;7.07;6.30;;;;;;;;;;4985873;28;20455;-79
2022/08/17 06:19:53;;;;;;;6.93;6.33;;;;;;;;;;5014417;28;20495;-80
2022/08/17 06:22:32;;;;;;;8.20;7.50;;;;;;;;;;4991392;28;20503;-80
2022/08/17 06:25:21;;;;;;;8.30;6.40;;;;;;;;;;5004898;28;20482;-78
2022/08/17 06:27:54;;;;;;;8.40;7.00;;;;;;;;;;4999701;28;20939;-78
2022/08/17 06:30:47;;;;;;;8.13;6.43;;;;;;;;;;4980777;28;20459;-79
2022/08/17 06:33:35;;;;;;;13.50;7.33;;;;;;;;;;5003309;28;20520;-78
2022/08/17 06:36:13;;;;;;;8.73;7.87;;;;;;;;;;5007154;28;20535;-77
2022/08/17 06:38:55;;;;;;;10.23;7.63;;;;;;;;;;4994967;28;20866;-77
2022/08/17 06:41:26;;;;;;;12.50;8.40;;;;;;;;;;4983424;28;20483;-76
2022/08/17 06:44:19;;;;;;;11.40;7.70;;;;;;;;;;4989610;28;20861;-77
2022/08/17 06:46:55;;;;;;;8.10;7.30;;;;;;;;;;4977990;28;21152;-76
2022/08/17 06:50:26;;;;;;;9.13;8.20;;;;;;;;;;5007170;28;20444;-76
2022/08/17 06:53:08;;;;;;;9.97;7.77;;;;;;;;;;4931423;29;20428;-75
2022/08/17 06:55:48;;;;;;;10.70;8.87;;;;;;;;;;4915297;28;20543;-78
2022/08/17 06:58:14;;;;;;;9.67;8.40;;;;;;;;;;5000524;28;20435;-78
2022/08/17 07:00:41;;;;;;;8.90;8.00;;;;;;;;;;4967692;28;20432;-77
2022/08/17 07:03:08;;;;;;;9.03;7.60;;;;;;;;;;5007118;28;20448;-79
2022/08/17 07:05:38;;;;;;;11.20;7.90;;;;;;;;;;4984643;28;20435;-78
2022/08/17 07:08:06;;;;;;;8.43;7.53;;;;;;;;;;4997590;28;20446;-80
2022/08/17 07:10:41;;;;;;;15.03;7.53;;;;;;;;;;5005899;28;20502;-78
2022/08/17 07:13:17;;;;;;;10.80;7.77;;;;;;;;;;4988504;28;20440;-78
2022/08/17 07:15:43;;;;;;;12.23;7.30;;;;;;;;;;5010380;28;21062;-79
2022/08/17 07:18:21;;;;;;;9.40;7.27;;;;;;;;;;4994534;28;20420;-78
2022/08/17 07:20:47;;;;;;;9.63;8.70;;;;;;;;;;4975469;28;20531;-79
2022/08/17 07:23:28;;;;;;;8.20;7.50;;;;;;;;;;5008164;28;20454;-79
2022/08/17 07:26:03;;;;;;;8.90;7.10;;;;;;;;;;4981896;28;20530;-78
2022/08/17 07:28:28;;;;;;;10.77;7.43;;;;;;;;;;4989372;28;20486;-78
2022/08/17 07:30:55;;;;;;;9.73;7.87;;;;;;;;;;5005839;28;20826;-79
2022/08/17 07:33:23;;;;;;;8.53;7.67;;;;;;;;;;5010943;28;20440;-79
2022/08/17 07:39:01;;;;;;;8.30;7.50;;;;;;;;;;4998419;28;20910;-77
2022/08/17 07:41:31;;;;;;;10.63;7.10;;;;;;;;;;4991349;28;20472;-76
2022/08/17 07:49:47;;;;;;;9.20;7.13;;;;;;;;;;5010211;28;20431;-77
2022/08/17 07:52:30;;;;;;;7.70;7.00;;;;;;;;;;4987790;28;20440;-79
2022/08/17 07:54:56;;;;;;;8.30;7.50;;;;;;;;;;5002829;28;20428;-78
2022/08/17 07:57:28;;;;;;;15.20;7.40;;;;;;;;;;4968697;28;20439;-80
2022/08/17 08:00:00;;;;;;;7.80;7.00;;;;;;;;;;4999119;28;20436;-79
2022/08/17 08:02:34;;;;;;;10.73;7.50;;;;;;;;;;4991280;28;20477;-77
2022/08/17 08:05:08;;;;;;;8.80;7.03;;;;;;;;;;5014034;28;20431;-77
2022/08/17 08:07:43;;;;;;;11.80;7.83;;;;;;;;;;4974886;28;20436;-76
2022/08/17 08:10:09;;;;;;;8.17;7.37;;;;;;;;;;5012058;28;20431;-80
2022/08/17 08:12:56;;;;;;;7.40;6.77;;;;;;;;;;4988357;28;20447;-78
2022/08/17 08:18:36;;;;;;;8.30;7.60;;;;;;;;;;5007390;28;21114;-79
2022/08/17 08:21:23;;;;;;;7.83;7.03;;;;;;;;;;4978382;28;21483;-78
2022/08/17 08:23:52;;;;;;;9.50;6.83;;;;;;;;;;4973624;28;20432;-77
2022/08/17 08:26:43;;;;;;;8.63;7.33;;;;;;;;;;5002806;28;20452;-78
2022/08/17 08:29:27;;;;;;;9.67;7.83;;;;;;;;;;4979057;28;20663;-81
2022/08/17 08:31:56;;;;;;;8.33;6.80;;;;;;;;;;5003214;28;20442;-82
2022/08/17 08:34:46;;;;;;;10.00;6.33;;;;;;;;;;5006621;28;20443;-80
2022/08/17 08:37:29;;;;;;;6.90;5.77;;;;;;;;;;4983922;28;20440;-81
2022/08/17 08:39:58;;;;;;;7.50;6.70;;;;;;;;;;5000895;28;20471;-79
2022/08/17 08:42:44;;;;;;;8.63;7.77;;;;;;;;;;4957065;28;20480;-80
2022/08/17 08:45:29;;;;;;;8.27;7.50;;;;;;;;;;4992013;28;20562;-81
2022/08/17 08:48:14;;;;;;;8.37;7.53;;;;;;;;;;4995404;28;20476;-80
2022/08/17 08:51:18;;;;;;;6.63;5.83;;;;;;;;;;5007826;28;20466;-79
2022/08/17 08:53:48;;;;;;;7.60;6.60;;;;;;;;;;4986023;28;20953;-80
2022/08/17 08:56:36;;;;;;;8.97;6.60;;;;;;;;;;4994402;28;21090;-80
2022/08/17 08:59:06;;;;;;;8.67;7.80;;;;;;;;;;5007225;28;20440;-80
2022/08/17 09:01:32;;;;;;;8.07;7.13;;;;;;;;;;4992533;28;20480;-80
2022/08/17 09:04:03;;;;;;;7.50;6.77;;;;;;;;;;4983490;28;20524;-78
2022/08/17 09:06:48;;;;;;;7.30;6.60;;;;;;;;;;5007267;28;20447;-79
2022/08/17 09:09:19;;;;;;;7.97;7.17;;;;;;;;;;5004915;28;20448;-78
2022/08/17 09:12:01;;;;;;;8.53;7.50;;;;;;;;;;4989971;28;20443;-80
2022/08/17 09:14:38;;;;;;;8.07;7.27;;;;;;;;;;4978733;28;20470;-80
2022/08/17 09:17:11;;;;;;;12.20;7.83;;;;;;;;;;4992456;28;20444;-79
2022/08/17 09:19:37;;;;;;;8.70;7.77;;;;;;;;;;5001094;28;20478;-80
2022/08/17 09:22:13;;;;;;;9.13;7.03;;;;;;;;;;5007337;28;20610;-78
2022/08/17 09:24:42;;;;;;;8.87;8.03;;;;;;;;;;4994931;28;20450;-78
2022/08/17 09:27:13;;;;;;;9.13;7.80;;;;;;;;;;4995102;28;20440;-78
2022/08/17 09:29:56;;;;;;;14.37;8.13;;;;;;;;;;5013667;28;20887;-78
2022/08/17 09:32:37;;;;;;;10.20;6.60;;;;;;;;;;4992928;28;20560;-79
2022/08/17 09:35:23;;;;;;;6.53;5.93;;;;;;;;;;4998891;28;20519;-79
2022/08/17 09:37:56;;;;;;;6.67;6.13;;;;;;;;;;4989903;28;20748;-80
2022/08/17 09:40:56;;;;;;;7.27;5.30;;;;;;;;;;4998937;28;20460;-79
2022/08/17 09:43:42;;;;;;;6.30;5.70;;;;;;;;;;4996818;28;20491;-77
2022/08/17 09:46:14;;;;;;;6.50;5.83;;;;;;;;;;5011405;28;20443;-78
2022/08/17 09:48:59;;;;;;;6.60;5.77;;;;;;;;;;4992532;28;23761;-78
2022/08/17 09:51:25;;;;;;;6.53;5.90;;;;;;;;;;5016129;28;20467;-76
2022/08/17 09:53:52;;;;;;;5.70;5.20;;;;;;;;;;5018553;28;20550;-76
2022/08/17 09:56:22;;;;;;;5.93;5.33;;;;;;;;;;4974297;28;20464;-77
2022/08/17 09:59:08;;;;;;;8.20;7.13;;;;;;;;;;5010375;28;20436;-76
2022/08/17 10:01:43;;;;;;;6.70;6.10;;;;;;;;;;4988454;28;20480;-77
2022/08/17 10:04:19;;;;;;;7.33;6.63;;;;;;;;;;4988776;28;20879;-77
2022/08/17 10:06:48;;;;;;;5.93;5.40;;;;;;;;;;4987912;28;20456;-76
2022/08/17 10:09:17;;;;;;;8.50;6.77;;;;;;;;;;5003956;28;20428;-76
2022/08/17 10:14:51;;;;;;;8.87;7.40;;;;;;;;;;5005725;28;20950;-76
2022/08/17 10:17:46;;;;;;;9.37;8.40;;;;;;;;;;4991582;28;20437;-76
2022/08/17 10:20:32;;;;;;;9.00;7.90;;;;;;;;;;4995494;28;20436;-76
2022/08/17 10:28:29;;;;;;;9.90;9.00;;;;;;;;;;5004478;28;20566;-76
2022/08/17 10:30:56;;;;;;;10.80;9.10;;;;;;;;;;4989817;28;20441;-75
2022/08/17 10:33:23;;;;;;;9.17;8.37;;;;;;;;;;4979983;28;20459;-76
2022/08/17 10:36:00;;;;;;;9.73;8.63;;;;;;;;;;4977615;28;20803;-75
2022/08/17 10:38:45;;;;;;;8.83;7.80;;;;;;;;;;4992530;28;20447;-76
2022/08/17 10:41:17;;;;;;;8.70;7.90;;;;;;;;;;5006173;28;20474;-76
2022/08/17 10:44:02;;;;;;;8.97;8.07;;;;;;;;;;4959621;28;20476;-76
2022/08/17 10:46:32;;;;;;;10.57;9.60;;;;;;;;;;4989481;28;20448;-76
2022/08/17 10:49:21;;;;;;;9.50;8.50;;;;;;;;;;4969703;28;20448;-78
2022/08/17 10:52:14;;;;;;;9.27;8.20;;;;;;;;;;4994220;28;20441;-77
2022/08/17 10:54:47;;;;;;;9.30;8.40;;;;;;;;;;5004010;28;20444;-76
2022/08/17 11:00:20;;;;;;;9.00;7.20;;;;;;;;;;5003974;28;20548;-76
2022/08/17 11:02:50;;;;;;;6.90;6.30;;;;;;;;;;4966426;28;20487;-76
2022/08/17 11:05:37;;;;;;;7.90;6.33;;;;;;;;;;5004434;28;20783;-76
2022/08/17 11:08:13;;;;;;;8.93;6.40;;;;;;;;;;4973677;28;20436;-74
2022/08/17 11:10:58;;;;;;;6.90;6.20;;;;;;;;;;4992605;28;20458;-74
2022/08/17 11:14:03;;;;;;;7.03;6.40;;;;;;;;;;5012755;28;20441;-74
2022/08/17 11:16:29;;;;;;;7.93;5.50;;;;;;;;;;5002148;28;20440;-74
2022/08/17 11:19:19;;;;;;;6.47;5.87;;;;;;;;;;4978408;28;24661;-75
2022/08/17 11:22:03;;;;;;;8.37;7.00;;;;;;;;;;4970654;28;20228;-76
2022/08/17 11:24:36;;;;;;;7.80;7.10;;;;;;;;;;4975407;28;20451;-74
2022/08/17 11:27:08;;;;;;;9.33;8.43;;;;;;;;;;5008109;28;20463;-74
2022/08/17 11:29:58;;;;;;;8.27;7.47;;;;;;;;;;5005521;28;20428;-75
2022/08/17 11:32:27;;;;;;;7.10;6.40;;;;;;;;;;4971063;28;20447;-79
2022/08/17 11:35:04;;;;;;;11.07;7.07;;;;;;;;;;5001786;28;20547;-77
2022/08/17 11:38:03;;;;;;;11.13;7.03;;;;;;;;;;4997622;28;20933;-79
2022/08/17 11:40:46;;;;;;;6.77;6.17;;;;;;;;;;4999785;28;20440;-77
2022/08/17 11:43:22;;;;;;;7.53;6.83;;;;;;;;;;4991347;28;20483;-77
2022/08/17 11:46:03;;;;;;;7.57;6.87;;;;;;;;;;5002021;28;20455;-78
2022/08/17 11:52:04;;;;;;;9.17;7.90;;;;;;;;;;4996830;28;20439;-78
2022/08/17 11:54:33;;;;;;;10.90;8.53;;;;;;;;;;4962654;28;20470;-78
2022/08/17 12:00:39;;;;;;;7.60;6.90;;;;;;;;;;5002144;28;20479;-76
2022/08/17 12:03:21;;;;;;;8.30;7.53;;;;;;;;;;4989553;28;21188;-76
2022/08/17 12:06:06;;;;;;;8.43;7.47;;;;;;;;;;5007208;28;20431;-76
2022/08/17 12:08:32;;;;;;;7.63;6.93;;;;;;;;;;4956349;28;20463;-79
2022/08/17 12:11:01;;;;;;;8.30;7.60;;;;;;;;;;5008687;28;20537;-76
2022/08/17 12:13:36;;;;;;;10.17;6.93;;;;;;;;;;5003328;28;21474;-77
2022/08/17 12:16:02;;;;;;;8.87;7.97;;;;;;;;;;4973709;28;20525;-77
2022/08/17 12:18:34;;;;;;;8.10;7.30;;;;;;;;;;4944187;28;20452;-77
2022/08/17 12:21:11;;;;;;;10.33;8.00;;;;;;;;;;5000408;28;20454;-76
2022/08/17 12:23:41;;;;;;;8.93;8.03;;;;;;;;;;4966650;28;20474;-77
2022/08/17 12:26:11;;;;;;;7.37;6.57;;;;;;;;;;4985070;28;20462;-77
2022/08/17 12:28:38;;;;;;;7.07;6.37;;;;;;;;;;4984950;28;20619;-76
2022/08/17 12:31:06;;;;;;;7.60;6.90;;;;;;;;;;4998088;28;20432;-76
2022/08/17 12:33:32;;;;;;;8.67;7.30;;;;;;;;;;4963818;28;20540;-76
2022/08/17 12:36:04;;;;;;;8.90;7.30;;;;;;;;;;4987552;28;20446;-77
2022/08/17 12:38:33;;;;;;;9.50;8.57;;;;;;;;;;4980701;28;20469;-75
2022/08/17 12:44:11;;;;;;;10.03;7.40;;;;;;;;;;5004823;28;20476;-77
2022/08/17 12:46:47;;;;;;;10.33;8.23;;;;;;;;;;4972231;28;24638;-77
2022/08/17 12:49:14;;;;;;;9.43;8.47;;;;;;;;;;5002776;28;20431;-79
2022/08/17 12:52:04;;;;;;;8.80;7.90;;;;;;;;;;5004941;28;20529;-77
2022/08/17 12:54:40;;;;;;;9.43;7.67;;;;;;;;;;5004780;28;20449;-76
2022/08/17 12:57:08;;;;;;;7.83;7.17;;;;;;;;;;4960483;28;20440;-77
2022/08/17 12:59:54;;;;;;;8.53;7.80;;;;;;;;;;4997620;28;20494;-76
2022/08/17 13:03:08;;;;;;;9.93;7.00;;;;;;;;;;4976434;28;20478;-78
2022/08/17 13:05:40;;;;;;;9.20;7.23;;;;;;;;;;4931410;29;20443;-80
2022/08/17 13:08:28;;;;;;;7.90;6.37;;;;;;;;;;4898471;29;20439;-79
2022/08/17 13:10:55;;;;;;;6.23;5.63;;;;;;;;;;4971445;28;20534;-80
2022/08/17 13:13:28;;;;;;;5.90;5.40;;;;;;;;;;4994531;28;20936;-77
2022/08/17 13:16:19;;;;;;;6.07;5.47;;;;;;;;;;5010662;28;20459;-78
2022/08/17 13:18:48;;;;;;;6.00;5.50;;;;;;;;;;4985832;28;20459;-75
2022/08/17 13:21:31;;;;;;;5.43;4.67;;;;;;;;;;4992904;28;20475;-76
2022/08/17 13:24:07;;;;;;;5.27;4.80;;;;;;;;;;4982696;28;21034;-76
2022/08/17 13:26:40;;;;;;;6.93;5.47;;;;;;;;;;4976803;28;20547;-78
2022/08/17 13:29:24;;;;;;;7.07;6.37;;;;;;;;;;5002721;28;20463;-80
2022/08/17 13:31:54;;;;;;;6.43;5.87;;;;;;;;;;4964105;28;21194;-77
2022/08/17 13:34:42;;;;;;;5.30;4.80;;;;;;;;;;4981373;28;20520;-77
2022/08/17 13:37:32;;;;;;;5.83;5.33;;;;;;;;;;4964752;28;20444;-77
2022/08/17 13:40:09;;;;;;;5.47;4.97;;;;;;;;;;5005735;28;20440;-79
2022/08/17 13:43:11;;;;;;;6.80;6.20;;;;;;;;;;4994640;28;20460;-79
2022/08/17 13:45:43;;;;;;;6.20;4.90;;;;;;;;;;5009539;28;20436;-84
2022/08/17 13:48:16;;;;;;;5.17;4.77;;;;;;;;;;4968834;28;20454;-84
2022/08/17 13:50:49;;;;;;;5.90;5.30;;;;;;;;;;4994703;28;20439;-84
2022/08/17 13:53:28;;;;;;;6.73;6.10;;;;;;;;;;4996217;28;20466;-82
2022/08/17 13:55:54;;;;;;;6.50;6.00;;;;;;;;;;5002663;28;20435;-83
2022/08/17 13:58:31;;;;;;;5.87;5.37;;;;;;;;;;5007033;28;20436;-89
2022/08/17 14:00:58;;;;;;;5.57;5.07;;;;;;;;;;4992741;28;20451;-85
2022/08/17 14:03:30;;;;;;;5.73;4.87;;;;;;;;;;4985028;28;20444;-85
2022/08/17 14:05:56;;;;;;;5.53;5.03;;;;;;;;;;4985054;28;20435;-87
2022/08/17 14:08:22;;;;;;;5.10;4.60;;;;;;;;;;4979954;28;20440;-84
2022/08/17 14:11:28;;;;;;;6.63;4.53;;;;;;;;;;4985807;28;20189;-80
2022/08/17 14:13:54;;;;;;;5.43;5.03;;;;;;;;;;4976158;28;21063;-79
2022/08/17 14:16:21;;;;;;;5.37;4.87;;;;;;;;;;4994074;28;20427;-80
2022/08/17 14:18:49;;;;;;;5.07;4.50;;;;;;;;;;4983005;28;20431;-81
2022/08/17 14:21:16;;;;;;;5.27;4.87;;;;;;;;;;4991930;28;20439;-80
2022/08/17 14:23:50;;;;;;;5.30;4.80;;;;;;;;;;4942204;28;20989;-79
2022/08/17 14:26:16;;;;;;;5.30;4.80;;;;;;;;;;4985669;28;20449;-80
2022/08/17 14:28:42;;;;;;;5.90;4.80;;;;;;;;;;5000265;28;20935;-79
2022/08/17 14:31:22;;;;;;;5.23;4.83;;;;;;;;;;5007156;28;20828;-81
2022/08/17 14:33:54;;;;;;;5.07;4.67;;;;;;;;;;4976442;28;21099;-81
2022/08/17 14:36:20;;;;;;;6.00;5.50;;;;;;;;;;4998379;28;20987;-78
2022/08/17 14:38:46;;;;;;;6.10;5.50;;;;;;;;;;4984420;28;20440;-79
2022/08/17 14:41:14;;;;;;;6.63;5.20;;;;;;;;;;4998552;28;20513;-79
2022/08/17 14:43:45;;;;;;;5.70;5.20;;;;;;;;;;4961594;28;20205;-79
2022/08/17 14:46:11;;;;;;;5.70;5.23;;;;;;;;;;5011301;23;22029;-54
2022/08/17 14:48:39;;;;;;;5.43;4.93;;;;;;;;;;4974395;28;20434;-55
2022/08/17 14:51:05;;;;;;;5.80;5.30;;;;;;;;;;4996573;28;20446;-55
2022/08/17 14:53:31;;;;;;;5.80;5.20;;;;;;;;;;5021962;28;20435;-55
2022/08/17 14:55:57;;;;;;;5.87;5.30;;;;;;;;;;4994425;28;20533;-55
2022/08/17 14:58:23;;;;;;;5.37;4.90;;;;;;;;;;5020959;28;20443;-54
2022/08/17 15:00:49;;;;;;;5.80;5.30;;;;;;;;;;4991397;28;20211;-54
2022/08/17 15:03:21;;;;;;;4.90;4.50;;;;;;;;;;5024251;28;20538;-55
2022/08/17 15:05:47;;;;;;;6.17;5.60;;;;;;;;;;4982635;28;20475;-55
2022/08/17 15:08:15;;;;;;;5.63;5.07;;;;;;;;;;5014140;28;20523;-54
2022/08/17 15:10:44;;;;;;;6.50;5.00;;;;;;;;;;4993892;28;20434;-61
2022/08/17 15:13:18;;;;;;;6.03;5.53;;;;;;;;;;5009793;28;20431;-55
2022/08/17 15:15:44;;;;;;;6.13;5.63;;;;;;;;;;5016016;28;20473;-56
2022/08/17 15:18:10;;;;;;;5.70;5.20;;;;;;;;;;5017603;28;20527;-55
2022/08/17 15:20:39;;;;;;;7.10;5.30;;;;;;;;;;4970287;28;20451;-56
2022/08/17 15:23:08;;;;;;;5.60;5.10;;;;;;;;;;5011425;28;20475;-58
2022/08/17 15:25:34;;;;;;;7.13;6.50;;;;;;;;;;5018195;28;20487;-55
2022/08/17 15:28:00;;;;;;;6.40;5.30;;;;;;;;;;5022452;28;20443;-55
2022/08/17 15:30:27;;;;;;;6.10;5.60;;;;;;;;;;4984195;28;20443;-55
2022/08/17 15:32:53;;;;;;;5.33;4.83;;;;;;;;;;5017280;28;20439;-53
2022/08/17 15:35:19;;;;;;;7.47;5.60;;;;;;;;;;4986010;28;20540;-55
2022/08/17 15:37:47;;;;;;;5.73;5.13;;;;;;;;;;5011916;28;20443;-55
2022/08/17 15:40:17;;;;;;;5.53;5.03;;;;;;;;;;4985450;28;20529;-56
2022/08/17 15:42:43;;;;;;;8.43;5.60;;;;;;;;;;5011123;28;20482;-56
2022/08/17 15:45:10;;;;;;;5.80;4.90;;;;;;;;;;4974252;28;20490;-54
2022/08/17 15:47:37;;;;;;;5.73;5.23;;;;;;;;;;5007025;28;21327;-56
2022/08/17 15:50:05;;;;;;;6.43;5.27;;;;;;;;;;5007630;28;20450;-57
2022/08/17 15:52:36;;;;;;;5.67;5.27;;;;;;;;;;4998436;28;21788;-56
2022/08/17 15:55:03;;;;;;;5.77;5.17;;;;;;;;;;5009382;28;20525;-55
2022/08/17 15:57:29;;;;;;;4.90;4.40;;;;;;;;;;5006028;28;21459;-56
2022/08/17 15:59:55;;;;;;;6.70;6.10;;;;;;;;;;5007049;28;20467;-53
2022/08/17 16:02:29;;;;;;;5.70;4.80;;;;;;;;;;5020151;28;20719;-56
2022/08/17 16:05:20;;;;;;;5.63;5.03;;;;;;;;;;5015794;28;21197;-55
2022/08/17 16:07:46;;;;;;;6.40;5.80;;;;;;;;;;4999918;28;21018;-56
2022/08/17 16:10:12;;;;;;;6.10;5.50;;;;;;;;;;5021911;28;20435;-57
2022/08/17 16:12:38;;;;;;;5.70;5.10;;;;;;;;;;5017640;28;20768;-56